Time;durP1;ratioP1;P1;durP2;ratioP2;P2;SDS_P1;SDS_P2;PMS_P1;PMS_P2;Temp;Humidity;BMP_temperature;BMP_pressure;BME280_temperature;BME280_humidity;BME280_pressure;Samples;Min_cycle;Max_cycle;Signal;HPM_P1;HPM_P2
2023/02/28 05:04:28;;;;;;;5.00;4.50;;;-0.10;99.90;;;;;;5847156;22;20276;-69
2023/02/28 05:06:55;;;;;;;2.90;2.10;;;-0.10;99.90;;;;;;5031253;28;20209;-69
2023/02/28 05:09:20;;;;;;;3.95;3.58;;;-0.10;99.90;;;;;;5032708;28;20180;-70
2023/02/28 05:11:46;;;;;;;3.30;2.80;;;-0.10;99.90;;;;;;5032816;28;20168;-69
2023/02/28 05:14:13;;;;;;;4.60;3.43;;;-0.10;99.90;;;;;;5031086;28;20668;-70
2023/02/28 05:16:39;;;;;;;3.70;3.40;;;0.00;99.90;;;;;;5033022;28;20249;-71
2023/02/28 05:19:05;;;;;;;2.53;2.33;;;0.00;99.90;;;;;;5032709;28;20212;-69
2023/02/28 05:21:37;;;;;;;9.03;3.10;;;-0.10;99.90;;;;;;5032846;28;20220;-70
2023/02/28 05:24:06;;;;;;;3.40;2.53;;;-0.10;99.90;;;;;;5032394;28;20189;-71
2023/02/28 05:26:35;;;;;;;2.78;2.45;;;-0.10;99.90;;;;;;5033255;28;20165;-70
2023/02/28 05:29:00;;;;;;;3.50;3.25;;;-0.10;99.90;;;;;;5036174;28;20198;-71
2023/02/28 05:31:26;;;;;;;4.47;2.50;;;0.00;99.90;;;;;;5035985;28;20259;-71
2023/02/28 05:33:52;;;;;;;5.73;3.47;;;-0.10;99.90;;;;;;5035557;28;20174;-72
2023/02/28 05:36:18;;;;;;;3.42;3.08;;;0.00;99.90;;;;;;5035573;28;20166;-70
2023/02/28 05:38:46;;;;;;;2.83;2.63;;;0.00;99.90;;;;;;5036195;28;20178;-72
2023/02/28 05:41:12;;;;;;;8.80;3.10;;;-0.10;99.90;;;;;;5035841;28;20173;-71
2023/02/28 05:43:38;;;;;;;4.00;3.50;;;0.00;99.90;;;;;;5035634;28;20177;-72
2023/02/28 05:46:08;;;;;;;3.60;3.30;;;0.00;99.90;;;;;;5035786;28;20223;-70
2023/02/28 05:48:36;;;;;;;3.30;3.00;;;0.00;99.90;;;;;;5026449;28;20198;-71
2023/02/28 05:51:03;;;;;;;3.25;2.95;;;0.10;99.90;;;;;;5029712;28;20518;-71
2023/02/28 05:53:28;;;;;;;3.88;3.50;;;0.10;99.90;;;;;;5024434;28;20176;-71
2023/02/28 05:55:54;;;;;;;3.00;2.60;;;0.10;99.90;;;;;;5032784;28;20540;-73
2023/02/28 05:58:21;;;;;;;3.83;3.20;;;0.10;99.90;;;;;;5031434;28;20416;-74
2023/02/28 06:00:47;;;;;;;4.90;3.30;;;0.10;99.90;;;;;;5035712;28;20409;-74
2023/02/28 06:03:12;;;;;;;2.67;2.47;;;0.10;99.90;;;;;;5033300;28;20207;-71
2023/02/28 06:05:38;;;;;;;3.40;3.10;;;0.10;99.90;;;;;;5020673;28;20252;-71
2023/02/28 06:08:06;;;;;;;4.50;3.80;;;0.10;99.90;;;;;;5025744;28;20194;-72
2023/02/28 06:10:35;;;;;;;4.25;3.70;;;0.10;99.90;;;;;;5028322;28;20179;-71
2023/02/28 06:13:04;;;;;;;3.58;3.22;;;0.10;99.90;;;;;;5015490;28;20237;-73
2023/02/28 06:15:30;;;;;;;4.43;4.00;;;0.10;99.90;;;;;;5015553;28;20662;-73
2023/02/28 06:17:56;;;;;;;3.15;2.78;;;0.20;99.90;;;;;;5023239;28;20272;-74
2023/02/28 06:20:23;;;;;;;2.90;2.30;;;0.10;99.90;;;;;;5034508;28;20253;-70
2023/02/28 06:22:51;;;;;;;3.35;3.05;;;0.20;99.90;;;;;;5021752;28;20178;-71
2023/02/28 06:25:16;;;;;;;3.53;3.22;;;0.20;99.90;;;;;;5018487;28;20286;-72
2023/02/28 06:27:42;;;;;;;3.63;3.33;;;0.20;99.90;;;;;;5032086;28;20281;-70
2023/02/28 06:30:11;;;;;;;4.28;2.90;;;0.20;99.90;;;;;;5035100;28;20163;-75
2023/02/28 06:32:36;;;;;;;3.58;2.92;;;0.20;99.90;;;;;;5028791;28;20183;-71
2023/02/28 06:35:03;;;;;;;4.23;3.83;;;0.30;99.90;;;;;;5034463;28;20189;-69
2023/02/28 06:37:30;;;;;;;6.63;3.03;;;0.30;99.90;;;;;;5028221;28;20186;-73
2023/02/28 06:39:55;;;;;;;8.60;4.35;;;0.30;99.90;;;;;;5014998;28;20171;-73
2023/02/28 06:42:25;;;;;;;5.07;2.83;;;0.30;99.90;;;;;;5014758;28;20685;-73
2023/02/28 06:44:51;;;;;;;5.28;3.40;;;0.30;99.90;;;;;;5013281;28;20193;-66
2023/02/28 06:47:17;;;;;;;3.08;2.80;;;0.30;99.90;;;;;;5015688;28;20201;-66
2023/02/28 06:49:44;;;;;;;4.00;3.30;;;0.40;99.90;;;;;;5034840;28;20169;-66
2023/02/28 06:52:10;;;;;;;5.70;4.32;;;0.40;99.90;;;;;;5034685;28;20397;-66
2023/02/28 06:54:36;;;;;;;3.50;2.90;;;0.40;99.90;;;;;;5034287;28;20558;-67
2023/02/28 06:57:02;;;;;;;3.38;3.08;;;0.40;99.90;;;;;;5034783;28;20627;-65
2023/02/28 06:59:28;;;;;;;4.43;3.93;;;0.50;99.90;;;;;;5034511;28;20194;-64
2023/02/28 07:01:54;;;;;;;4.00;3.60;;;0.50;99.90;;;;;;5034533;28;20179;-65
2023/02/28 07:04:20;;;;;;;3.10;2.88;;;0.50;99.90;;;;;;5034107;28;20185;-66
2023/02/28 07:06:46;;;;;;;3.78;3.55;;;0.50;99.90;;;;;;5017549;28;20193;-66
2023/02/28 07:09:12;;;;;;;6.90;4.97;;;0.60;99.90;;;;;;5014743;28;20539;-66
2023/02/28 07:11:37;;;;;;;4.83;3.90;;;0.60;99.90;;;;;;5017176;28;20182;-66
2023/02/28 07:14:03;;;;;;;3.63;2.43;;;0.70;99.90;;;;;;5014247;28;20187;-66
2023/02/28 07:16:28;;;;;;;4.50;4.10;;;0.70;99.90;;;;;;5014863;28;20167;-66
2023/02/28 07:18:54;;;;;;;4.13;3.03;;;0.70;99.90;;;;;;5014488;28;20208;-66
2023/02/28 07:21:20;;;;;;;5.93;4.70;;;0.80;99.90;;;;;;5021101;28;20166;-72
2023/02/28 07:23:46;;;;;;;6.43;3.20;;;0.80;99.90;;;;;;5023845;28;20527;-71
2023/02/28 07:26:16;;;;;;;5.23;4.73;;;0.80;99.90;;;;;;5033054;28;20181;-69
2023/02/28 07:28:42;;;;;;;3.97;3.55;;;0.80;99.90;;;;;;5025762;28;20224;-73
2023/02/28 07:31:09;;;;;;;5.07;3.88;;;0.80;99.90;;;;;;5032687;28;20174;-74
2023/02/28 07:33:35;;;;;;;5.43;3.90;;;0.90;99.90;;;;;;5032977;28;20181;-74
2023/02/28 07:36:06;;;;;;;8.35;4.25;;;0.80;99.90;;;;;;5026686;28;20178;-71
2023/02/28 07:38:37;;;;;;;5.88;4.15;;;0.80;99.90;;;;;;5012842;28;20541;-72
2023/02/28 07:41:07;;;;;;;5.15;3.97;;;0.90;99.90;;;;;;5013964;28;20166;-74
2023/02/28 07:43:34;;;;;;;4.88;3.65;;;0.90;99.90;;;;;;5018741;28;20170;-75
2023/02/28 07:46:08;;;;;;;6.00;4.20;;;0.90;99.90;;;;;;5027187;28;20174;-74
2023/02/28 07:48:33;;;;;;;5.82;4.07;;;0.90;99.90;;;;;;5031154;28;20688;-74
2023/02/28 07:51:00;;;;;;;4.73;3.83;;;0.90;99.90;;;;;;5023983;28;20201;-73
2023/02/28 07:53:27;;;;;;;6.07;5.43;;;1.00;99.90;;;;;;5030803;28;20409;-73
2023/02/28 07:55:57;;;;;;;2.95;2.65;;;1.00;99.90;;;;;;5028976;28;20216;-73
2023/02/28 07:58:23;;;;;;;6.82;4.30;;;1.00;99.90;;;;;;5026737;28;20562;-73
2023/02/28 08:00:49;;;;;;;5.65;4.43;;;1.00;99.90;;;;;;5032382;28;20181;-71
2023/02/28 08:03:16;;;;;;;3.90;3.60;;;1.00;99.90;;;;;;5032795;28;20576;-72
2023/02/28 08:05:42;;;;;;;4.40;4.00;;;1.00;99.90;;;;;;5031601;28;20210;-71
2023/02/28 08:08:08;;;;;;;10.37;6.10;;;1.10;99.90;;;;;;5033438;28;20719;-70
2023/02/28 08:10:34;;;;;;;4.67;3.70;;;1.10;99.90;;;;;;5033484;28;20184;-70
2023/02/28 08:13:00;;;;;;;5.00;3.42;;;1.20;99.90;;;;;;5033061;28;20405;-72
2023/02/28 08:15:26;;;;;;;5.13;3.28;;;1.20;99.90;;;;;;5023548;28;20253;-69
2023/02/28 08:17:52;;;;;;;4.80;4.10;;;1.20;99.90;;;;;;5030599;28;20193;-71
2023/02/28 08:20:19;;;;;;;4.65;4.25;;;1.20;99.90;;;;;;5032979;28;20852;-72
2023/02/28 08:22:44;;;;;;;3.70;3.40;;;1.20;99.80;;;;;;5033005;28;20268;-73
2023/02/28 08:25:10;;;;;;;4.57;4.13;;;1.20;99.80;;;;;;5015443;28;20464;-72
2023/02/28 08:27:36;;;;;;;5.97;3.58;;;1.20;99.90;;;;;;5032591;28;20198;-70
2023/02/28 08:30:02;;;;;;;3.93;3.47;;;1.30;99.90;;;;;;5032678;28;20232;-71
2023/02/28 08:32:28;;;;;;;4.75;3.53;;;1.40;99.90;;;;;;5029198;28;20645;-73
2023/02/28 08:34:54;;;;;;;5.93;4.50;;;1.40;99.60;;;;;;5032078;28;20252;-70
2023/02/28 08:37:20;;;;;;;4.00;3.70;;;1.40;99.60;;;;;;5020319;28;20201;-73
2023/02/28 08:39:45;;;;;;;5.38;4.03;;;1.40;99.30;;;;;;5033049;28;20639;-70
2023/02/28 08:42:11;;;;;;;7.70;4.70;;;1.40;99.20;;;;;;5025728;28;20173;-73
2023/02/28 08:44:36;;;;;;;4.50;4.10;;;1.40;99.20;;;;;;5027856;28;20566;-72
2023/02/28 08:47:02;;;;;;;5.87;4.17;;;1.40;99.20;;;;;;5022778;28;20186;-71
2023/02/28 08:49:28;;;;;;;5.07;4.03;;;1.50;99.30;;;;;;5020594;28;20168;-73
2023/02/28 08:51:55;;;;;;;4.10;3.70;;;1.50;99.20;;;;;;5032768;28;20332;-69
2023/02/28 08:54:21;;;;;;;4.93;3.40;;;1.50;99.10;;;;;;5032458;28;20189;-69
2023/02/28 08:56:47;;;;;;;5.65;4.28;;;1.60;98.80;;;;;;5029822;28;20178;-70
2023/02/28 08:59:12;;;;;;;4.97;3.77;;;1.60;98.90;;;;;;5012966;28;20519;-70
2023/02/28 09:01:38;;;;;;;5.50;4.70;;;1.80;98.80;;;;;;5023747;28;20182;-70
2023/02/28 09:04:06;;;;;;;10.00;4.07;;;1.80;98.70;;;;;;5020386;28;20990;-71
2023/02/28 09:06:32;;;;;;;4.82;4.05;;;1.90;98.00;;;;;;5016873;28;20209;-72
2023/02/28 09:08:59;;;;;;;6.40;4.90;;;1.80;97.80;;;;;;5031071;28;20277;-72
2023/02/28 09:11:25;;;;;;;4.63;3.58;;;1.90;97.90;;;;;;5016599;28;20242;-69
2023/02/28 09:13:50;;;;;;;5.07;4.05;;;1.90;97.80;;;;;;5032699;28;20174;-72
2023/02/28 09:16:16;;;;;;;6.20;4.73;;;2.00;97.80;;;;;;5028189;28;20541;-72
2023/02/28 09:18:43;;;;;;;4.57;4.03;;;2.10;97.70;;;;;;5036142;28;20185;-71
2023/02/28 09:21:13;;;;;;;4.95;4.45;;;2.10;97.50;;;;;;5025194;28;20882;-68
2023/02/28 09:23:40;;;;;;;7.75;4.38;;;2.20;97.50;;;;;;5025388;28;20175;-69
2023/02/28 09:26:06;;;;;;;6.78;5.07;;;2.30;96.90;;;;;;5024708;28;20600;-69
2023/02/28 09:28:31;;;;;;;4.33;3.90;;;2.30;96.80;;;;;;5027551;28;20207;-68
2023/02/28 09:30:58;;;;;;;4.17;3.63;;;2.30;96.70;;;;;;5018890;28;20183;-70
2023/02/28 09:33:25;;;;;;;4.60;3.70;;;2.40;96.80;;;;;;5020215;28;20661;-66
2023/02/28 09:35:57;;;;;;;3.35;3.13;;;2.40;96.70;;;;;;5031185;28;20204;-68
2023/02/28 09:38:22;;;;;;;3.65;3.40;;;2.50;96.60;;;;;;5031081;28;20175;-69
2023/02/28 09:40:58;;;;;;;5.00;4.57;;;2.60;96.40;;;;;;5033640;28;20178;-68
2023/02/28 09:43:29;;;;;;;5.28;4.28;;;2.70;96.10;;;;;;5033366;28;20177;-67
2023/02/28 09:46:00;;;;;;;5.65;4.60;;;2.80;96.00;;;;;;5025188;28;20218;-67
2023/02/28 09:48:34;;;;;;;5.72;5.05;;;2.90;95.90;;;;;;5027541;28;20200;-68
2023/02/28 09:51:09;;;;;;;4.25;3.85;;;2.80;95.20;;;;;;5040490;28;20181;-69
2023/02/28 09:53:39;;;;;;;6.68;4.40;;;2.90;95.10;;;;;;5034781;28;20295;-69
2023/02/28 09:56:09;;;;;;;4.57;4.15;;;2.80;95.20;;;;;;5035230;28;20594;-68
2023/02/28 09:58:38;;;;;;;4.65;4.05;;;2.80;95.50;;;;;;5023390;28;20269;-69
2023/02/28 10:01:30;;;;;;;6.15;4.85;;;2.90;95.60;;;;;;5027866;28;20182;-69
2023/02/28 10:04:09;;;;;;;4.90;4.00;;;3.00;95.70;;;;;;5014837;28;20233;-69
2023/02/28 10:06:52;;;;;;;5.53;5.03;;;3.10;95.30;;;;;;5023893;28;20186;-68
2023/02/28 10:09:30;;;;;;;5.05;4.47;;;3.20;94.90;;;;;;5026655;28;20601;-69
2023/02/28 10:12:03;;;;;;;4.38;3.97;;;3.10;94.80;;;;;;5024251;28;20166;-69
2023/02/28 10:14:31;;;;;;;4.82;3.88;;;3.20;94.90;;;;;;5028135;28;20186;-70
2023/02/28 10:17:14;;;;;;;5.25;4.72;;;3.30;94.70;;;;;;5034855;28;20239;-71
2023/02/28 10:19:49;;;;;;;5.70;4.95;;;3.30;94.70;;;;;;5030145;28;20174;-67
2023/02/28 10:22:22;;;;;;;7.57;5.65;;;3.50;94.70;;;;;;5032668;28;20250;-69
2023/02/28 10:24:51;;;;;;;10.65;4.78;;;3.70;94.10;;;;;;5028163;28;20554;-70
2023/02/28 10:27:23;;;;;;;8.02;5.30;;;3.80;93.80;;;;;;5027751;28;20526;-67
2023/02/28 10:29:55;;;;;;;4.40;3.97;;;3.80;93.80;;;;;;5018532;28;20233;-68
2023/02/28 10:32:29;;;;;;;6.78;4.55;;;3.80;94.00;;;;;;5034235;28;20181;-68
2023/02/28 10:35:01;;;;;;;10.40;6.13;;;3.90;93.80;;;;;;5017693;28;20190;-68
2023/02/28 10:37:28;;;;;;;5.20;4.60;;;4.00;93.70;;;;;;5031922;28;20182;-69
2023/02/28 10:39:53;;;;;;;6.72;4.90;;;4.10;93.30;;;;;;5034374;28;20178;-68
2023/02/28 10:42:27;;;;;;;5.40;4.20;;;4.00;93.20;;;;;;5022543;28;20659;-70
2023/02/28 10:45:15;;;;;;;5.10;4.60;;;4.10;93.60;;;;;;5032168;28;20201;-71
2023/02/28 10:48:00;;;;;;;7.80;4.55;;;4.40;93.30;;;;;;5026107;28;20531;-69
2023/02/28 10:50:37;;;;;;;5.90;5.40;;;4.80;92.90;;;;;;5031903;28;20181;-72
2023/02/28 10:53:24;;;;;;;5.55;4.90;;;5.10;92.70;;;;;;5031171;28;20549;-69
2023/02/28 10:56:08;;;;;;;6.68;5.45;;;5.70;91.80;;;;;;4998861;28;20221;-69
2023/02/28 10:59:12;;;;;;;6.72;4.55;;;6.50;91.00;;;;;;5034012;28;20192;-69
2023/02/28 11:01:44;;;;;;;5.80;5.30;;;7.20;89.30;;;;;;5025654;28;20193;-69
2023/02/28 11:04:39;;;;;;;5.88;4.80;;;7.50;86.80;;;;;;5032126;28;20298;-68
2023/02/28 11:07:20;;;;;;;6.43;5.15;;;7.60;85.60;;;;;;5027926;28;20191;-69
2023/02/28 11:09:49;;;;;;;7.15;5.07;;;7.70;85.00;;;;;;5030369;28;20169;-69
2023/02/28 11:12:26;;;;;;;8.68;5.20;;;7.80;85.30;;;;;;5033718;28;20184;-71
2023/02/28 11:15:06;;;;;;;5.73;4.60;;;7.90;82.90;;;;;;5032672;28;20585;-71
2023/02/28 11:17:33;;;;;;;5.43;4.37;;;8.00;83.40;;;;;;5029345;28;20475;-70
2023/02/28 11:20:06;;;;;;;5.47;4.97;;;8.10;83.40;;;;;;5033825;28;20791;-71
2023/02/28 11:22:37;;;;;;;13.27;6.20;;;8.20;82.30;;;;;;5033506;28;20476;-71
2023/02/28 11:25:10;;;;;;;4.70;4.30;;;8.10;81.20;;;;;;5031953;28;20452;-69
2023/02/28 11:27:51;;;;;;;8.68;5.13;;;7.80;81.70;;;;;;5033360;28;20217;-71
2023/02/28 11:30:58;;;;;;;4.47;4.03;;;7.50;82.30;;;;;;5033668;28;20553;-70
2023/02/28 11:33:32;;;;;;;5.38;4.85;;;7.00;82.90;;;;;;5021973;28;20332;-69
2023/02/28 11:36:03;;;;;;;7.45;5.15;;;6.70;84.10;;;;;;5033194;28;20197;-70
2023/02/28 11:38:32;;;;;;;6.00;5.00;;;6.50;84.40;;;;;;5032926;28;20178;-68
2023/02/28 11:41:19;;;;;;;5.85;4.80;;;6.30;85.20;;;;;;5029541;28;20171;-67
2023/02/28 11:43:50;;;;;;;7.00;5.15;;;6.20;85.60;;;;;;5030842;28;20178;-69
2023/02/28 11:46:32;;;;;;;9.63;6.13;;;6.00;85.30;;;;;;5031232;28;20668;-69
2023/02/28 11:49:35;;;;;;;5.72;5.22;;;5.90;86.30;;;;;;5032825;28;20211;-69
2023/02/28 11:52:38;;;;;;;8.10;5.78;;;5.80;86.50;;;;;;5032990;28;20263;-71
2023/02/28 11:55:18;;;;;;;6.53;5.38;;;5.80;87.20;;;;;;5032497;28;20259;-70
2023/02/28 11:58:11;;;;;;;5.75;5.13;;;5.70;87.40;;;;;;5032715;28;20205;-70
2023/02/28 12:00:48;;;;;;;6.13;5.07;;;5.70;87.70;;;;;;5032502;28;20177;-68
2023/02/28 12:03:59;;;;;;;6.72;5.38;;;5.70;88.30;;;;;;5023107;28;20184;-68
2023/02/28 12:06:38;;;;;;;5.85;4.38;;;5.70;87.80;;;;;;5017065;28;20232;-70
2023/02/28 12:09:23;;;;;;;7.90;5.75;;;5.70;87.90;;;;;;5028649;28;20225;-70
2023/02/28 12:12:13;;;;;;;5.88;5.30;;;5.70;88.80;;;;;;5033160;28;20177;-75
2023/02/28 12:14:54;;;;;;;5.30;4.80;;;5.90;87.70;;;;;;5020329;28;20191;-71
2023/02/28 12:17:37;;;;;;;6.05;4.80;;;5.90;87.70;;;;;;5032776;28;20751;-69
2023/02/28 12:20:18;;;;;;;8.35;5.25;;;5.90;87.80;;;;;;5023777;28;20212;-74
2023/02/28 12:22:58;;;;;;;9.60;5.93;;;6.00;87.60;;;;;;5031163;28;20188;-72
2023/02/28 12:25:50;;;;;;;6.45;4.53;;;6.00;87.00;;;;;;5032265;28;20193;-75
2023/02/28 12:28:21;;;;;;;5.97;4.25;;;6.10;86.50;;;;;;5023169;28;20202;-72
2023/02/28 12:31:18;;;;;;;12.45;4.45;;;6.10;86.30;;;;;;5022340;28;20223;-72
2023/02/28 12:33:51;;;;;;;7.35;5.13;;;6.00;87.10;;;;;;5021303;28;20178;-71
2023/02/28 12:36:21;;;;;;;5.22;4.72;;;6.20;87.00;;;;;;5028642;28;20173;-68
2023/02/28 12:38:56;;;;;;;5.40;4.88;;;6.20;86.30;;;;;;5036901;28;20197;-72
2023/02/28 12:41:40;;;;;;;6.25;5.15;;;6.10;85.60;;;;;;5023436;28;20232;-70
2023/02/28 12:44:15;;;;;;;4.97;4.38;;;6.00;86.00;;;;;;5036204;28;20213;-70
2023/02/28 12:46:55;;;;;;;5.50;4.88;;;5.90;86.60;;;;;;5026235;28;20191;-71
2023/02/28 12:49:34;;;;;;;6.07;4.45;;;6.00;87.10;;;;;;5012229;28;20233;-72
2023/02/28 12:52:01;;;;;;;5.05;4.10;;;6.00;86.90;;;;;;5026258;28;20257;-72
2023/02/28 12:54:41;;;;;;;6.35;5.05;;;6.10;85.90;;;;;;5028125;28;20211;-72
2023/02/28 12:57:25;;;;;;;6.80;5.45;;;6.10;85.40;;;;;;5031043;28;20638;-71
2023/02/28 12:59:52;;;;;;;5.43;4.93;;;6.00;85.80;;;;;;5028637;28;20177;-73
2023/02/28 13:02:42;;;;;;;6.30;5.40;;;6.00;86.30;;;;;;5029029;28;20248;-69
2023/02/28 13:05:26;;;;;;;7.00;4.43;;;5.90;85.90;;;;;;5029786;28;20235;-73
2023/02/28 13:08:11;;;;;;;5.72;4.75;;;6.00;85.70;;;;;;5027711;28;20307;-72
2023/02/28 13:10:54;;;;;;;8.80;4.53;;;5.90;86.00;;;;;;5029701;28;20174;-72
2023/02/28 13:13:29;;;;;;;8.50;5.35;;;5.90;86.30;;;;;;5026562;28;20169;-69
2023/02/28 13:16:10;;;;;;;6.82;4.88;;;5.90;86.30;;;;;;5027015;28;20186;-68
2023/02/28 13:18:43;;;;;;;6.38;5.00;;;6.00;86.30;;;;;;5027703;28;20245;-71
2023/02/28 13:21:22;;;;;;;5.90;4.97;;;6.00;86.40;;;;;;5028664;28;20238;-70
2023/02/28 13:23:57;;;;;;;5.60;5.10;;;6.00;85.80;;;;;;5029167;28;20531;-67
2023/02/28 13:26:49;;;;;;;7.03;5.72;;;6.10;85.70;;;;;;5032081;28;20520;-72
2023/02/28 13:29:18;;;;;;;4.82;4.18;;;6.10;85.30;;;;;;5036952;28;20200;-68
2023/02/28 13:32:05;;;;;;;18.77;6.45;;;6.10;86.10;;;;;;5035686;28;20183;-66
2023/02/28 13:34:32;;;;;;;6.43;5.18;;;6.10;85.10;;;;;;5015823;28;20318;-69
2023/02/28 13:37:19;;;;;;;5.15;4.20;;;6.10;85.10;;;;;;5028689;28;20232;-68
2023/02/28 13:39:48;;;;;;;6.15;4.90;;;6.20;85.10;;;;;;5023115;28;20177;-69
2023/02/28 13:42:38;;;;;;;6.40;5.10;;;6.10;85.10;;;;;;5028613;28;20186;-69
2023/02/28 13:45:04;;;;;;;5.22;3.75;;;6.10;85.20;;;;;;5015962;28;20214;-69
2023/02/28 13:47:35;;;;;;;5.63;4.00;;;6.10;85.40;;;;;;5027448;28;20656;-71
2023/02/28 13:50:22;;;;;;;5.38;4.45;;;6.20;85.50;;;;;;5026001;28;20192;-76
2023/02/28 13:52:52;;;;;;;4.78;4.30;;;6.20;84.70;;;;;;5033585;28;20259;-73
2023/02/28 13:55:39;;;;;;;5.35;4.85;;;6.20;85.80;;;;;;5035254;28;20212;-72
2023/02/28 13:58:12;;;;;;;5.00;4.60;;;6.30;85.70;;;;;;5032529;28;20181;-73
2023/02/28 14:00:59;;;;;;;5.00;4.20;;;6.40;85.10;;;;;;5034687;28;20176;-73
2023/02/28 14:03:57;;;;;;;7.47;4.78;;;6.50;84.80;;;;;;5027172;28;20262;-73
2023/02/28 14:06:29;;;;;;;5.68;4.43;;;6.50;84.80;;;;;;5002087;28;20209;-73
2023/02/28 14:09:07;;;;;;;4.35;3.80;;;6.50;84.40;;;;;;5029582;28;20228;-69
2023/02/28 14:11:38;;;;;;;4.15;3.75;;;6.50;83.80;;;;;;5031760;28;20177;-69
2023/02/28 14:14:06;;;;;;;4.78;3.55;;;6.50;83.80;;;;;;5030679;28;20198;-70
2023/02/28 14:16:45;;;;;;;6.22;3.60;;;6.40;84.70;;;;;;5033109;28;20196;-73
2023/02/28 14:19:21;;;;;;;5.35;4.13;;;6.40;84.30;;;;;;5033420;28;20228;-73
2023/02/28 14:22:10;;;;;;;5.13;3.97;;;6.40;84.40;;;;;;5032598;28;20196;-73
2023/02/28 14:24:49;;;;;;;7.82;4.72;;;6.50;84.90;;;;;;5011623;28;20217;-70
2023/02/28 14:27:48;;;;;;;5.65;5.15;;;6.60;84.90;;;;;;5024906;28;20176;-71
2023/02/28 14:30:33;;;;;;;4.30;3.67;;;6.60;84.30;;;;;;5035147;28;20187;-73
2023/02/28 14:33:31;;;;;;;6.30;5.13;;;6.60;84.50;;;;;;5018363;28;20650;-72
2023/02/28 14:36:27;;;;;;;5.43;4.38;;;6.60;84.50;;;;;;5031846;28;20191;-70
2023/02/28 14:38:56;;;;;;;4.70;4.30;;;6.60;84.30;;;;;;5033355;28;20600;-71
2023/02/28 14:41:38;;;;;;;7.82;5.55;;;6.50;84.60;;;;;;5034281;28;20500;-71
2023/02/28 14:44:13;;;;;;;5.60;4.38;;;6.50;84.40;;;;;;5033601;28;20228;-74
2023/02/28 14:46:42;;;;;;;7.00;4.10;;;6.50;84.90;;;;;;5034294;28;20253;-71
2023/02/28 14:49:27;;;;;;;6.45;4.40;;;6.50;85.10;;;;;;5033939;28;20212;-72
2023/02/28 14:52:05;;;;;;;6.20;4.80;;;6.50;85.30;;;;;;5033615;28;20173;-71
2023/02/28 14:54:30;;;;;;;6.95;5.47;;;6.40;85.20;;;;;;5030891;28;20289;-73
2023/02/28 14:56:56;;;;;;;6.90;5.03;;;6.40;85.10;;;;;;5034190;28;20247;-70
2023/02/28 14:59:34;;;;;;;6.40;5.17;;;6.40;85.30;;;;;;5033403;28;20255;-75
2023/02/28 15:02:22;;;;;;;4.90;4.43;;;6.40;85.30;;;;;;5032802;28;20260;-73
2023/02/28 15:04:58;;;;;;;5.35;4.85;;;6.30;85.80;;;;;;5027295;28;20553;-72
2023/02/28 15:07:28;;;;;;;4.63;3.90;;;6.30;85.90;;;;;;5033364;28;20193;-73
2023/02/28 15:10:19;;;;;;;8.75;5.18;;;6.30;86.20;;;;;;5034000;28;20175;-73
2023/02/28 15:12:58;;;;;;;4.82;4.20;;;6.20;86.20;;;;;;5026441;28;20541;-71
2023/02/28 15:15:44;;;;;;;5.43;4.57;;;6.20;85.80;;;;;;5031304;28;20197;-71
2023/02/28 15:18:41;;;;;;;4.80;4.40;;;6.20;86.20;;;;;;5033464;28;20206;-72
2023/02/28 15:21:11;;;;;;;4.28;3.92;;;6.20;86.50;;;;;;5032008;28;20178;-73
2023/02/28 15:23:37;;;;;;;4.97;4.45;;;6.10;86.70;;;;;;5018369;28;20184;-73
2023/02/28 15:26:04;;;;;;;6.03;4.70;;;6.10;86.60;;;;;;5033558;28;20177;-74
2023/02/28 15:28:30;;;;;;;4.30;3.90;;;6.10;87.00;;;;;;5031812;28;20206;-72
2023/02/28 15:31:00;;;;;;;5.53;5.00;;;6.00;86.80;;;;;;5028468;28;20170;-74
2023/02/28 15:33:31;;;;;;;8.05;5.30;;;6.00;86.80;;;;;;5032254;28;20415;-72
2023/02/28 15:36:14;;;;;;;4.60;4.05;;;6.00;87.10;;;;;;5031721;28;20201;-72
2023/02/28 15:38:43;;;;;;;5.80;3.95;;;5.90;87.70;;;;;;5033202;28;20184;-71
2023/02/28 15:41:25;;;;;;;6.43;5.13;;;5.90;87.90;;;;;;5030160;28;20185;-72
2023/02/28 15:44:15;;;;;;;4.93;4.10;;;5.90;87.60;;;;;;5031576;28;20284;-73
2023/02/28 15:46:45;;;;;;;7.05;4.53;;;5.90;87.90;;;;;;5032116;28;20190;-73
2023/02/28 15:49:20;;;;;;;9.70;6.22;;;5.90;88.30;;;;;;5032924;28;20201;-73
2023/02/28 15:51:45;;;;;;;6.47;5.32;;;5.90;88.50;;;;;;5029020;28;20181;-73
2023/02/28 15:54:19;;;;;;;6.53;5.37;;;5.90;88.50;;;;;;5032605;28;20245;-70
2023/02/28 15:56:46;;;;;;;7.47;5.80;;;5.80;88.30;;;;;;5033238;28;20191;-70
2023/02/28 15:59:21;;;;;;;5.72;4.60;;;5.80;88.40;;;;;;5032324;28;20181;-74
2023/02/28 16:01:47;;;;;;;4.82;4.25;;;5.70;88.40;;;;;;5033474;28;20215;-72
2023/02/28 16:04:19;;;;;;;7.97;5.38;;;5.70;88.70;;;;;;5032505;28;20202;-73
2023/02/28 16:06:46;;;;;;;6.30;5.70;;;5.70;89.00;;;;;;5033164;28;20193;-72
2023/02/28 16:09:16;;;;;;;5.80;4.80;;;5.60;89.00;;;;;;5038689;28;20198;-72
2023/02/28 16:11:47;;;;;;;7.70;5.05;;;5.60;89.10;;;;;;5042394;28;20198;-71
2023/02/28 16:14:17;;;;;;;5.97;5.07;;;5.60;89.20;;;;;;5030497;28;20254;-75
2023/02/28 16:16:48;;;;;;;5.57;4.70;;;5.50;89.30;;;;;;5032678;28;20171;-72
2023/02/28 16:19:14;;;;;;;6.55;4.60;;;5.40;89.60;;;;;;5032046;28;20231;-72
2023/02/28 16:21:40;;;;;;;4.97;4.20;;;5.40;89.80;;;;;;5031560;28;20180;-71
2023/02/28 16:24:06;;;;;;;7.77;6.17;;;5.40;90.10;;;;;;5032081;28;20449;-73
2023/02/28 16:26:33;;;;;;;5.32;4.82;;;5.30;90.20;;;;;;5031965;28;20175;-71
2023/02/28 16:29:01;;;;;;;7.40;4.47;;;5.30;90.00;;;;;;5032275;28;20188;-72
2023/02/28 16:31:27;;;;;;;5.15;4.47;;;5.30;90.10;;;;;;5024387;28;20174;-73
2023/02/28 16:33:53;;;;;;;4.40;4.00;;;5.20;90.20;;;;;;5032226;28;22514;-74
2023/02/28 16:36:24;;;;;;;6.78;4.85;;;5.20;90.30;;;;;;5027991;28;20168;-73
2023/02/28 16:38:50;;;;;;;5.30;4.38;;;5.10;90.20;;;;;;5026874;28;20178;-72
2023/02/28 16:41:25;;;;;;;8.63;5.67;;;5.10;90.30;;;;;;5029578;28;20179;-76
2023/02/28 16:43:54;;;;;;;7.47;5.43;;;5.00;90.30;;;;;;5032246;28;20534;-74
2023/02/28 16:46:20;;;;;;;4.85;4.25;;;5.00;90.50;;;;;;5032448;28;20657;-75
2023/02/28 16:48:51;;;;;;;8.77;6.28;;;4.90;90.50;;;;;;5031660;28;20202;-74
2023/02/28 16:51:17;;;;;;;4.88;4.43;;;4.90;90.60;;;;;;5032269;28;20573;-73
2023/02/28 16:53:44;;;;;;;6.25;4.50;;;4.90;90.70;;;;;;5031373;28;20171;-74
2023/02/28 16:56:21;;;;;;;6.15;5.03;;;4.80;90.90;;;;;;5030633;28;20233;-69
2023/02/28 16:58:48;;;;;;;9.48;4.57;;;4.70;90.90;;;;;;5023204;28;20265;-71
2023/02/28 17:01:14;;;;;;;5.22;4.18;;;4.70;91.10;;;;;;5021771;28;20218;-71
2023/02/28 17:03:40;;;;;;;5.88;4.60;;;4.60;91.10;;;;;;5023043;28;20183;-71
2023/02/28 17:06:15;;;;;;;5.90;5.17;;;4.60;91.20;;;;;;5032137;28;20197;-67
2023/02/28 17:08:41;;;;;;;5.43;4.90;;;4.60;91.20;;;;;;5031855;28;20228;-70
2023/02/28 17:11:08;;;;;;;6.37;5.03;;;4.50;91.30;;;;;;5030959;28;20181;-68
2023/02/28 17:13:34;;;;;;;6.03;4.38;;;4.50;91.50;;;;;;5030938;28;20521;-71
2023/02/28 17:16:00;;;;;;;5.60;4.90;;;4.50;91.50;;;;;;5031926;28;20195;-73
2023/02/28 17:18:28;;;;;;;5.05;4.55;;;4.40;91.60;;;;;;5031392;28;20262;-73
2023/02/28 17:20:55;;;;;;;4.50;4.15;;;4.40;91.70;;;;;;5032462;28;20542;-71
2023/02/28 17:23:21;;;;;;;9.13;6.15;;;4.40;91.80;;;;;;5035216;28;20184;-72
2023/02/28 17:25:52;;;;;;;7.83;4.73;;;4.30;91.80;;;;;;5035242;28;20198;-73
2023/02/28 17:28:19;;;;;;;9.90;6.15;;;4.30;91.90;;;;;;5031143;28;20209;-72
2023/02/28 17:30:47;;;;;;;5.28;4.40;;;4.20;92.00;;;;;;5026883;28;20174;-71
2023/02/28 17:33:13;;;;;;;6.68;5.45;;;4.20;92.10;;;;;;5025428;28;20167;-73
2023/02/28 17:35:39;;;;;;;6.60;4.97;;;4.20;92.20;;;;;;5030552;28;20285;-75
2023/02/28 17:38:08;;;;;;;6.80;4.65;;;4.10;92.10;;;;;;5027686;28;20261;-72
2023/02/28 17:40:34;;;;;;;7.00;6.20;;;4.10;92.30;;;;;;5035354;28;20181;-69
2023/02/28 17:42:59;;;;;;;6.70;4.47;;;4.00;92.40;;;;;;5034730;28;20182;-71
2023/02/28 17:45:25;;;;;;;7.00;5.60;;;4.00;92.50;;;;;;5031489;28;20204;-69
2023/02/28 17:47:51;;;;;;;4.87;4.43;;;3.90;92.60;;;;;;5025803;28;20221;-68
2023/02/28 17:50:19;;;;;;;7.03;6.23;;;3.90;92.70;;;;;;5033645;28;20240;-68
2023/02/28 17:52:46;;;;;;;6.15;5.32;;;3.90;92.70;;;;;;5028678;28;20177;-69
2023/02/28 17:55:12;;;;;;;5.68;4.30;;;3.80;92.70;;;;;;5033542;28;20198;-70
2023/02/28 17:57:37;;;;;;;8.70;5.40;;;3.80;92.80;;;;;;5034927;28;20182;-64
2023/02/28 18:00:06;;;;;;;6.83;5.77;;;3.70;92.90;;;;;;5034757;28;20224;-68
2023/02/28 18:02:32;;;;;;;6.38;5.30;;;3.70;93.10;;;;;;5025768;28;20638;-68
2023/02/28 18:04:58;;;;;;;7.90;5.15;;;3.70;93.30;;;;;;5034847;28;20206;-70
2023/02/28 18:07:24;;;;;;;7.00;6.30;;;3.70;93.30;;;;;;5034814;28;20187;-67
2023/02/28 18:09:50;;;;;;;5.85;5.35;;;3.60;93.40;;;;;;5031179;28;20216;-71
2023/02/28 18:12:16;;;;;;;5.97;4.67;;;3.60;93.50;;;;;;5032673;28;20673;-70
2023/02/28 18:14:42;;;;;;;6.87;5.20;;;3.50;93.60;;;;;;5032543;28;20198;-70
2023/02/28 18:17:12;;;;;;;7.85;4.40;;;3.50;93.60;;;;;;5026883;28;20424;-68
2023/02/28 18:19:38;;;;;;;8.75;4.82;;;3.50;93.60;;;;;;5032206;28;20178;-68
2023/02/28 18:22:06;;;;;;;7.20;5.20;;;3.40;93.70;;;;;;5032757;28;20236;-68
2023/02/28 18:24:32;;;;;;;9.90;6.60;;;3.40;93.70;;;;;;5031486;28;20191;-69